Portada
METAR-TAF:

METAR-TAF

Aeropuertos :

Rundu, Namibia

latitud: 17-57-20S, longitud: 019-43-25E, altitud: 1106 m

Observación

El informe se hizo hace 32 minutos, a las 14:00 UTC
Viento 5 kt del este
Temperatura
Presión
Visibilidad 10 km o más
sin nubes por debajo de 1500 m y sin presencia de cumulonimbus.

METAR: FYRU 231400Z 08005KT CAVOK ///// Q////

Hora: 16:32 (14:32 UTC)

Pronóstico

El informe se hizo hace 32 minutos, a las 14:00 UTC
Pronóstico válido del 23 a las 15 UTC al 23 a las 24 UTC
Viento 5 kt del este
Visibilidad 10 km o más
sin nubes por debajo de 1500 m y sin presencia de cumulonimbus.

TAF: FYRU 231400Z 2315/2324 08005KT CAVOK

Observaciones y pronósticos meteorológicos de más de 4000 aeropuertos (mensajes METAR y TAF).

Los puntos amarillos y rojos representan las estaciones disponibles.

Ponga el ratón en el punto deseado para ver el nombre de la estación.

Haga clic para ver las observaciones y los pronósticos meteorológicos.

Para cambiar el mapa : haga clic en los botones verdes con una cruz de color negro para hacer un zoom, en el botón verde con un guión para alejar o en las flechas verdes para mapas adyacentes.


METAR-TAF: